sensor_id;sensor_type;location;lat;lon;timestamp;P1;durP1;ratioP1;P2;durP2;ratioP2
54555;SDS011;57291;37.520;15.106;2023-03-14T00:00:15;15.57;;;5.55;;
54555;SDS011;57291;37.520;15.106;2023-03-14T00:02:43;17.92;;;5.97;;
54555;SDS011;57291;37.520;15.106;2023-03-14T00:05:10;13.15;;;5.82;;
54555;SDS011;57291;37.520;15.106;2023-03-14T00:07:37;13.45;;;5.40;;
54555;SDS011;57291;37.520;15.106;2023-03-14T00:10:11;13.57;;;4.88;;
54555;SDS011;57291;37.520;15.106;2023-03-14T00:12:43;13.27;;;4.82;;
54555;SDS011;57291;37.520;15.106;2023-03-14T00:15:11;12.43;;;4.70;;
54555;SDS011;57291;37.520;15.106;2023-03-14T00:17:39;19.23;;;5.80;;
54555;SDS011;57291;37.520;15.106;2023-03-14T00:20:06;14.77;;;5.40;;
54555;SDS011;57291;37.520;15.106;2023-03-14T00:22:38;15.95;;;5.80;;
54555;SDS011;57291;37.520;15.106;2023-03-14T00:25:06;18.27;;;4.93;;
54555;SDS011;57291;37.520;15.106;2023-03-14T00:27:35;18.08;;;6.05;;
54555;SDS011;57291;37.520;15.106;2023-03-14T00:30:05;15.98;;;6.43;;
54555;SDS011;57291;37.520;15.106;2023-03-14T00:32:34;17.60;;;5.90;;
54555;SDS011;57291;37.520;15.106;2023-03-14T00:35:02;15.45;;;6.05;;
54555;SDS011;57291;37.520;15.106;2023-03-14T00:37:30;16.60;;;5.93;;
54555;SDS011;57291;37.520;15.106;2023-03-14T00:39:57;19.38;;;5.43;;
54555;SDS011;57291;37.520;15.106;2023-03-14T00:42:25;14.45;;;5.45;;
54555;SDS011;57291;37.520;15.106;2023-03-14T00:44:52;13.30;;;4.60;;
54555;SDS011;57291;37.520;15.106;2023-03-14T00:47:19;14.95;;;4.70;;
54555;SDS011;57291;37.520;15.106;2023-03-14T00:49:47;17.15;;;5.20;;
54555;SDS011;57291;37.520;15.106;2023-03-14T00:52:18;13.05;;;5.03;;
54555;SDS011;57291;37.520;15.106;2023-03-14T00:54:45;16.90;;;5.15;;
54555;SDS011;57291;37.520;15.106;2023-03-14T00:57:16;12.00;;;5.07;;
54555;SDS011;57291;37.520;15.106;2023-03-14T00:59:43;13.80;;;5.32;;
54555;SDS011;57291;37.520;15.106;2023-03-14T01:02:10;15.30;;;5.90;;
54555;SDS011;57291;37.520;15.106;2023-03-14T01:04:37;18.38;;;5.95;;
54555;SDS011;57291;37.520;15.106;2023-03-14T01:07:05;15.32;;;6.32;;
54555;SDS011;57291;37.520;15.106;2023-03-14T01:09:33;19.30;;;7.13;;
54555;SDS011;57291;37.520;15.106;2023-03-14T01:12:01;20.50;;;8.45;;
54555;SDS011;57291;37.520;15.106;2023-03-14T01:14:28;28.52;;;11.93;;
54555;SDS011;57291;37.520;15.106;2023-03-14T01:16:56;24.65;;;10.90;;
54555;SDS011;57291;37.520;15.106;2023-03-14T01:19:27;29.77;;;11.60;;
54555;SDS011;57291;37.520;15.106;2023-03-14T01:21:55;20.23;;;9.07;;
54555;SDS011;57291;37.520;15.106;2023-03-14T01:24:22;20.45;;;8.15;;
54555;SDS011;57291;37.520;15.106;2023-03-14T01:26:49;19.83;;;7.80;;
54555;SDS011;57291;37.520;15.106;2023-03-14T01:29:16;22.70;;;8.00;;
54555;SDS011;57291;37.520;15.106;2023-03-14T01:31:43;18.17;;;7.93;;
54555;SDS011;57291;37.520;15.106;2023-03-14T01:34:11;15.75;;;7.07;;
54555;SDS011;57291;37.520;15.106;2023-03-14T01:36:39;13.95;;;6.43;;
54555;SDS011;57291;37.520;15.106;2023-03-14T01:39:06;14.82;;;6.50;;
54555;SDS011;57291;37.520;15.106;2023-03-14T01:41:34;15.95;;;5.80;;
54555;SDS011;57291;37.520;15.106;2023-03-14T01:44:01;13.90;;;5.28;;
54555;SDS011;57291;37.520;15.106;2023-03-14T01:46:32;10.65;;;5.10;;
54555;SDS011;57291;37.520;15.106;2023-03-14T01:49:27;13.20;;;5.22;;
54555;SDS011;57291;37.520;15.106;2023-03-14T01:52:07;12.88;;;4.38;;
54555;SDS011;57291;37.520;15.106;2023-03-14T01:54:39;12.50;;;4.97;;
54555;SDS011;57291;37.520;15.106;2023-03-14T01:57:17;10.55;;;4.43;;
54555;SDS011;57291;37.520;15.106;2023-03-14T01:59:59;16.17;;;4.50;;
54555;SDS011;57291;37.520;15.106;2023-03-14T02:02:39;13.85;;;4.75;;
54555;SDS011;57291;37.520;15.106;2023-03-14T02:05:10;12.05;;;4.15;;
54555;SDS011;57291;37.520;15.106;2023-03-14T02:07:50;10.93;;;4.38;;
54555;SDS011;57291;37.520;15.106;2023-03-14T02:10:34;13.07;;;4.43;;
54555;SDS011;57291;37.520;15.106;2023-03-14T02:13:08;11.13;;;4.00;;
54555;SDS011;57291;37.520;15.106;2023-03-14T02:15:45;10.18;;;3.97;;
54555;SDS011;57291;37.520;15.106;2023-03-14T02:18:31;10.75;;;3.72;;
54555;SDS011;57291;37.520;15.106;2023-03-14T02:24:19;17.25;;;4.15;;
54555;SDS011;57291;37.520;15.106;2023-03-14T02:27:10;14.55;;;3.88;;
54555;SDS011;57291;37.520;15.106;2023-03-14T02:29:54;13.00;;;3.70;;
54555;SDS011;57291;37.520;15.106;2023-03-14T02:32:26;12.40;;;3.87;;
54555;SDS011;57291;37.520;15.106;2023-03-14T02:35:00;12.75;;;4.07;;
54555;SDS011;57291;37.520;15.106;2023-03-14T02:40:40;14.32;;;3.50;;
54555;SDS011;57291;37.520;15.106;2023-03-14T02:43:07;10.50;;;3.28;;
54555;SDS011;57291;37.520;15.106;2023-03-14T02:45:40;11.52;;;3.53;;
54555;SDS011;57291;37.520;15.106;2023-03-14T02:48:14;9.18;;;3.55;;
54555;SDS011;57291;37.520;15.106;2023-03-14T02:50:42;9.70;;;3.53;;
54555;SDS011;57291;37.520;15.106;2023-03-14T02:53:13;10.95;;;3.50;;
54555;SDS011;57291;37.520;15.106;2023-03-14T02:55:45;11.93;;;3.75;;
54555;SDS011;57291;37.520;15.106;2023-03-14T02:58:16;8.95;;;3.38;;
54555;SDS011;57291;37.520;15.106;2023-03-14T03:00:46;11.55;;;3.70;;
54555;SDS011;57291;37.520;15.106;2023-03-14T03:03:14;8.07;;;3.42;;
54555;SDS011;57291;37.520;15.106;2023-03-14T03:05:41;9.93;;;3.28;;
54555;SDS011;57291;37.520;15.106;2023-03-14T03:08:11;10.52;;;3.78;;
54555;SDS011;57291;37.520;15.106;2023-03-14T03:10:39;13.57;;;3.97;;
54555;SDS011;57291;37.520;15.106;2023-03-14T03:13:06;12.10;;;4.05;;
54555;SDS011;57291;37.520;15.106;2023-03-14T03:15:33;13.80;;;4.15;;
54555;SDS011;57291;37.520;15.106;2023-03-14T03:18:01;11.40;;;4.03;;
54555;SDS011;57291;37.520;15.106;2023-03-14T03:20:28;11.65;;;3.80;;
54555;SDS011;57291;37.520;15.106;2023-03-14T03:22:55;11.90;;;4.05;;
54555;SDS011;57291;37.520;15.106;2023-03-14T03:25:22;11.30;;;3.70;;
54555;SDS011;57291;37.520;15.106;2023-03-14T03:27:49;10.30;;;3.33;;
54555;SDS011;57291;37.520;15.106;2023-03-14T03:30:18;12.63;;;3.30;;
54555;SDS011;57291;37.520;15.106;2023-03-14T03:32:46;9.38;;;3.90;;
54555;SDS011;57291;37.520;15.106;2023-03-14T03:35:13;13.05;;;3.80;;
54555;SDS011;57291;37.520;15.106;2023-03-14T03:37:41;7.85;;;3.45;;
54555;SDS011;57291;37.520;15.106;2023-03-14T03:40:08;10.18;;;3.42;;
54555;SDS011;57291;37.520;15.106;2023-03-14T03:42:36;11.02;;;4.38;;
54555;SDS011;57291;37.520;15.106;2023-03-14T03:45:07;8.25;;;3.60;;
54555;SDS011;57291;37.520;15.106;2023-03-14T03:47:39;11.63;;;3.50;;
54555;SDS011;57291;37.520;15.106;2023-03-14T03:50:07;8.23;;;3.63;;
54555;SDS011;57291;37.520;15.106;2023-03-14T03:52:34;13.95;;;4.95;;
54555;SDS011;57291;37.520;15.106;2023-03-14T03:55:01;15.27;;;5.03;;
54555;SDS011;57291;37.520;15.106;2023-03-14T03:57:29;13.68;;;5.15;;
54555;SDS011;57291;37.520;15.106;2023-03-14T03:59:56;15.32;;;5.40;;
54555;SDS011;57291;37.520;15.106;2023-03-14T04:02:24;12.05;;;5.63;;
54555;SDS011;57291;37.520;15.106;2023-03-14T04:04:51;13.27;;;5.22;;
54555;SDS011;57291;37.520;15.106;2023-03-14T04:07:19;11.98;;;4.32;;
54555;SDS011;57291;37.520;15.106;2023-03-14T04:09:46;11.65;;;4.60;;
54555;SDS011;57291;37.520;15.106;2023-03-14T04:12:32;11.15;;;3.88;;
54555;SDS011;57291;37.520;15.106;2023-03-14T04:15:05;7.70;;;3.75;;
54555;SDS011;57291;37.520;15.106;2023-03-14T04:17:34;14.95;;;3.72;;
54555;SDS011;57291;37.520;15.106;2023-03-14T04:20:02;11.90;;;4.28;;
54555;SDS011;57291;37.520;15.106;2023-03-14T04:22:35;12.70;;;4.10;;
54555;SDS011;57291;37.520;15.106;2023-03-14T04:25:02;10.60;;;4.32;;
54555;SDS011;57291;37.520;15.106;2023-03-14T04:27:33;12.25;;;4.35;;
54555;SDS011;57291;37.520;15.106;2023-03-14T04:30:04;11.25;;;4.55;;
54555;SDS011;57291;37.520;15.106;2023-03-14T04:33:03;13.98;;;5.97;;
54555;SDS011;57291;37.520;15.106;2023-03-14T04:35:34;13.57;;;5.90;;
54555;SDS011;57291;37.520;15.106;2023-03-14T04:38:06;14.10;;;6.18;;
54555;SDS011;57291;37.520;15.106;2023-03-14T04:40:36;13.43;;;6.22;;
54555;SDS011;57291;37.520;15.106;2023-03-14T04:43:06;14.00;;;4.88;;
54555;SDS011;57291;37.520;15.106;2023-03-14T04:45:34;16.63;;;6.03;;
54555;SDS011;57291;37.520;15.106;2023-03-14T04:48:04;11.20;;;5.10;;
54555;SDS011;57291;37.520;15.106;2023-03-14T04:50:32;18.85;;;6.30;;
54555;SDS011;57291;37.520;15.106;2023-03-14T04:52:59;12.50;;;5.93;;
54555;SDS011;57291;37.520;15.106;2023-03-14T04:55:26;15.18;;;6.20;;
54555;SDS011;57291;37.520;15.106;2023-03-14T04:57:55;17.80;;;6.25;;
54555;SDS011;57291;37.520;15.106;2023-03-14T05:00:22;15.68;;;5.82;;
54555;SDS011;57291;37.520;15.106;2023-03-14T05:03:03;16.15;;;5.80;;
54555;SDS011;57291;37.520;15.106;2023-03-14T05:05:51;15.07;;;5.28;;
54555;SDS011;57291;37.520;15.106;2023-03-14T05:08:36;14.07;;;4.97;;
54555;SDS011;57291;37.520;15.106;2023-03-14T05:11:22;15.25;;;5.68;;
54555;SDS011;57291;37.520;15.106;2023-03-14T05:14:21;14.52;;;5.47;;
54555;SDS011;57291;37.520;15.106;2023-03-14T05:16:59;17.17;;;5.78;;
54555;SDS011;57291;37.520;15.106;2023-03-14T05:19:59;16.20;;;5.38;;
54555;SDS011;57291;37.520;15.106;2023-03-14T05:22:44;17.90;;;5.90;;
54555;SDS011;57291;37.520;15.106;2023-03-14T05:25:37;18.95;;;6.07;;
54555;SDS011;57291;37.520;15.106;2023-03-14T05:28:23;13.50;;;5.80;;
54555;SDS011;57291;37.520;15.106;2023-03-14T05:31:08;12.88;;;5.20;;
54555;SDS011;57291;37.520;15.106;2023-03-14T05:36:33;15.70;;;4.88;;
54555;SDS011;57291;37.520;15.106;2023-03-14T05:39:18;11.18;;;4.15;;
54555;SDS011;57291;37.520;15.106;2023-03-14T05:42:04;12.45;;;4.60;;
54555;SDS011;57291;37.520;15.106;2023-03-14T05:44:55;12.30;;;4.20;;
54555;SDS011;57291;37.520;15.106;2023-03-14T05:47:41;11.18;;;3.83;;
54555;SDS011;57291;37.520;15.106;2023-03-14T05:50:29;11.30;;;3.75;;
54555;SDS011;57291;37.520;15.106;2023-03-14T05:53:20;10.13;;;4.22;;
54555;SDS011;57291;37.520;15.106;2023-03-14T05:56:06;11.35;;;4.07;;
54555;SDS011;57291;37.520;15.106;2023-03-14T05:58:56;9.85;;;3.60;;
54555;SDS011;57291;37.520;15.106;2023-03-14T06:01:32;8.07;;;3.20;;
54555;SDS011;57291;37.520;15.106;2023-03-14T06:04:13;9.63;;;3.70;;
54555;SDS011;57291;37.520;15.106;2023-03-14T06:06:46;11.27;;;3.35;;
54555;SDS011;57291;37.520;15.106;2023-03-14T06:09:15;10.48;;;3.45;;
54555;SDS011;57291;37.520;15.106;2023-03-14T06:11:45;8.02;;;3.55;;
54555;SDS011;57291;37.520;15.106;2023-03-14T06:14:13;14.60;;;3.17;;
54555;SDS011;57291;37.520;15.106;2023-03-14T06:16:43;10.80;;;3.55;;
54555;SDS011;57291;37.520;15.106;2023-03-14T06:19:11;8.85;;;2.80;;
54555;SDS011;57291;37.520;15.106;2023-03-14T06:21:40;9.50;;;3.42;;
54555;SDS011;57291;37.520;15.106;2023-03-14T06:24:07;13.85;;;3.40;;
54555;SDS011;57291;37.520;15.106;2023-03-14T06:26:40;13.25;;;3.35;;
54555;SDS011;57291;37.520;15.106;2023-03-14T06:29:08;10.80;;;3.97;;
54555;SDS011;57291;37.520;15.106;2023-03-14T06:31:36;10.57;;;3.42;;
54555;SDS011;57291;37.520;15.106;2023-03-14T06:34:05;8.35;;;3.35;;
54555;SDS011;57291;37.520;15.106;2023-03-14T06:36:33;11.60;;;3.20;;
54555;SDS011;57291;37.520;15.106;2023-03-14T06:39:00;8.50;;;3.20;;
54555;SDS011;57291;37.520;15.106;2023-03-14T06:41:29;8.18;;;3.15;;
54555;SDS011;57291;37.520;15.106;2023-03-14T06:43:58;16.10;;;3.10;;
54555;SDS011;57291;37.520;15.106;2023-03-14T06:46:26;11.02;;;2.67;;
54555;SDS011;57291;37.520;15.106;2023-03-14T06:48:53;8.43;;;2.80;;
54555;SDS011;57291;37.520;15.106;2023-03-14T06:51:20;8.65;;;2.75;;
54555;SDS011;57291;37.520;15.106;2023-03-14T06:53:49;7.85;;;2.92;;
54555;SDS011;57291;37.520;15.106;2023-03-14T06:56:19;9.85;;;2.78;;
54555;SDS011;57291;37.520;15.106;2023-03-14T06:58:46;8.40;;;2.53;;
54555;SDS011;57291;37.520;15.106;2023-03-14T07:01:22;6.63;;;2.72;;
54555;SDS011;57291;37.520;15.106;2023-03-14T07:03:54;9.68;;;3.38;;
54555;SDS011;57291;37.520;15.106;2023-03-14T07:06:21;8.75;;;2.85;;
54555;SDS011;57291;37.520;15.106;2023-03-14T07:08:49;9.23;;;2.67;;
54555;SDS011;57291;37.520;15.106;2023-03-14T07:11:17;10.48;;;2.55;;
54555;SDS011;57291;37.520;15.106;2023-03-14T07:13:44;8.98;;;2.40;;
54555;SDS011;57291;37.520;15.106;2023-03-14T07:16:12;8.93;;;2.10;;
54555;SDS011;57291;37.520;15.106;2023-03-14T07:18:39;10.73;;;2.63;;
54555;SDS011;57291;37.520;15.106;2023-03-14T07:21:07;8.32;;;2.33;;
54555;SDS011;57291;37.520;15.106;2023-03-14T07:23:36;5.82;;;2.42;;
54555;SDS011;57291;37.520;15.106;2023-03-14T07:26:05;9.45;;;2.60;;
54555;SDS011;57291;37.520;15.106;2023-03-14T07:28:34;7.57;;;2.28;;
54555;SDS011;57291;37.520;15.106;2023-03-14T07:31:11;9.60;;;2.35;;
54555;SDS011;57291;37.520;15.106;2023-03-14T07:33:38;10.23;;;2.08;;
54555;SDS011;57291;37.520;15.106;2023-03-14T07:36:06;8.13;;;2.08;;
54555;SDS011;57291;37.520;15.106;2023-03-14T07:38:34;9.10;;;2.05;;
54555;SDS011;57291;37.520;15.106;2023-03-14T07:41:22;7.75;;;2.38;;
54555;SDS011;57291;37.520;15.106;2023-03-14T07:44:08;11.02;;;2.40;;
54555;SDS011;57291;37.520;15.106;2023-03-14T07:46:35;6.97;;;2.00;;
54555;SDS011;57291;37.520;15.106;2023-03-14T07:49:02;9.07;;;2.67;;
54555;SDS011;57291;37.520;15.106;2023-03-14T07:51:31;13.40;;;2.47;;
54555;SDS011;57291;37.520;15.106;2023-03-14T07:53:58;10.25;;;2.35;;
54555;SDS011;57291;37.520;15.106;2023-03-14T07:56:25;6.55;;;2.20;;
54555;SDS011;57291;37.520;15.106;2023-03-14T07:58:53;10.05;;;2.60;;
54555;SDS011;57291;37.520;15.106;2023-03-14T08:01:20;10.82;;;2.67;;
54555;SDS011;57291;37.520;15.106;2023-03-14T08:03:47;9.57;;;2.70;;
54555;SDS011;57291;37.520;15.106;2023-03-14T08:06:21;10.48;;;2.72;;
54555;SDS011;57291;37.520;15.106;2023-03-14T08:08:48;8.95;;;2.60;;
54555;SDS011;57291;37.520;15.106;2023-03-14T08:11:15;9.90;;;3.08;;
54555;SDS011;57291;37.520;15.106;2023-03-14T08:13:42;11.90;;;3.00;;
54555;SDS011;57291;37.520;15.106;2023-03-14T08:16:16;11.35;;;2.65;;
54555;SDS011;57291;37.520;15.106;2023-03-14T08:18:44;9.45;;;2.78;;
54555;SDS011;57291;37.520;15.106;2023-03-14T08:21:12;12.52;;;3.17;;
54555;SDS011;57291;37.520;15.106;2023-03-14T08:23:40;9.90;;;3.10;;
54555;SDS011;57291;37.520;15.106;2023-03-14T08:26:07;9.85;;;2.90;;
54555;SDS011;57291;37.520;15.106;2023-03-14T08:28:34;14.60;;;3.65;;
54555;SDS011;57291;37.520;15.106;2023-03-14T08:31:01;11.13;;;3.25;;
54555;SDS011;57291;37.520;15.106;2023-03-14T08:33:29;10.05;;;2.97;;
54555;SDS011;57291;37.520;15.106;2023-03-14T08:35:57;11.82;;;3.25;;
54555;SDS011;57291;37.520;15.106;2023-03-14T08:38:27;11.93;;;3.53;;
54555;SDS011;57291;37.520;15.106;2023-03-14T08:40:57;12.05;;;2.90;;
54555;SDS011;57291;37.520;15.106;2023-03-14T08:43:26;12.90;;;2.85;;
54555;SDS011;57291;37.520;15.106;2023-03-14T08:45:57;11.85;;;2.78;;
54555;SDS011;57291;37.520;15.106;2023-03-14T08:48:25;15.23;;;3.08;;
54555;SDS011;57291;37.520;15.106;2023-03-14T08:50:52;16.30;;;3.03;;
54555;SDS011;57291;37.520;15.106;2023-03-14T08:53:19;9.82;;;2.90;;
54555;SDS011;57291;37.520;15.106;2023-03-14T08:55:52;9.57;;;2.78;;
54555;SDS011;57291;37.520;15.106;2023-03-14T08:58:20;6.60;;;2.50;;
54555;SDS011;57291;37.520;15.106;2023-03-14T09:00:50;11.00;;;2.30;;
54555;SDS011;57291;37.520;15.106;2023-03-14T09:03:18;11.40;;;2.83;;
54555;SDS011;57291;37.520;15.106;2023-03-14T09:05:45;9.85;;;2.75;;
54555;SDS011;57291;37.520;15.106;2023-03-14T09:08:12;13.00;;;2.72;;
54555;SDS011;57291;37.520;15.106;2023-03-14T09:10:39;12.18;;;2.97;;
54555;SDS011;57291;37.520;15.106;2023-03-14T09:13:06;6.93;;;2.10;;
54555;SDS011;57291;37.520;15.106;2023-03-14T09:15:34;16.13;;;2.55;;
54555;SDS011;57291;37.520;15.106;2023-03-14T09:18:01;13.85;;;2.47;;
54555;SDS011;57291;37.520;15.106;2023-03-14T09:20:28;9.80;;;2.60;;
54555;SDS011;57291;37.520;15.106;2023-03-14T09:22:55;13.20;;;2.38;;
54555;SDS011;57291;37.520;15.106;2023-03-14T09:25:22;9.70;;;2.63;;
54555;SDS011;57291;37.520;15.106;2023-03-14T09:27:49;12.48;;;2.67;;
54555;SDS011;57291;37.520;15.106;2023-03-14T09:30:17;7.68;;;2.22;;
54555;SDS011;57291;37.520;15.106;2023-03-14T09:32:44;11.32;;;2.20;;
54555;SDS011;57291;37.520;15.106;2023-03-14T09:35:11;10.13;;;2.10;;
54555;SDS011;57291;37.520;15.106;2023-03-14T09:37:38;10.55;;;2.58;;
54555;SDS011;57291;37.520;15.106;2023-03-14T09:40:06;9.68;;;2.30;;
54555;SDS011;57291;37.520;15.106;2023-03-14T09:42:37;6.65;;;1.92;;
54555;SDS011;57291;37.520;15.106;2023-03-14T09:45:13;9.68;;;2.35;;
54555;SDS011;57291;37.520;15.106;2023-03-14T09:47:48;8.32;;;2.33;;
54555;SDS011;57291;37.520;15.106;2023-03-14T09:50:26;9.63;;;2.28;;
54555;SDS011;57291;37.520;15.106;2023-03-14T09:53:01;12.97;;;2.53;;
54555;SDS011;57291;37.520;15.106;2023-03-14T09:55:31;6.78;;;1.90;;
54555;SDS011;57291;37.520;15.106;2023-03-14T09:58:03;6.22;;;2.30;;
54555;SDS011;57291;37.520;15.106;2023-03-14T10:00:36;7.50;;;2.25;;
54555;SDS011;57291;37.520;15.106;2023-03-14T10:05:52;12.57;;;2.75;;
54555;SDS011;57291;37.520;15.106;2023-03-14T10:08:20;5.03;;;1.98;;
54555;SDS011;57291;37.520;15.106;2023-03-14T10:10:47;6.25;;;2.10;;
54555;SDS011;57291;37.520;15.106;2023-03-14T10:13:16;5.97;;;1.88;;
54555;SDS011;57291;37.520;15.106;2023-03-14T10:15:55;5.43;;;1.60;;
54555;SDS011;57291;37.520;15.106;2023-03-14T10:18:28;11.05;;;1.63;;
54555;SDS011;57291;37.520;15.106;2023-03-14T10:21:07;9.18;;;1.77;;
54555;SDS011;57291;37.520;15.106;2023-03-14T10:23:49;10.05;;;1.95;;
54555;SDS011;57291;37.520;15.106;2023-03-14T10:26:18;6.55;;;1.65;;
54555;SDS011;57291;37.520;15.106;2023-03-14T10:29:07;5.93;;;1.80;;
54555;SDS011;57291;37.520;15.106;2023-03-14T10:32:21;7.15;;;2.28;;
54555;SDS011;57291;37.520;15.106;2023-03-14T10:34:35;7.63;;;1.92;;
54555;SDS011;57291;37.520;15.106;2023-03-14T10:37:22;7.82;;;1.40;;
54555;SDS011;57291;37.520;15.106;2023-03-14T10:39:53;7.35;;;1.67;;
54555;SDS011;57291;37.520;15.106;2023-03-14T10:42:29;6.35;;;1.40;;
54555;SDS011;57291;37.520;15.106;2023-03-14T10:44:59;7.90;;;1.50;;
54555;SDS011;57291;37.520;15.106;2023-03-14T10:47:29;5.82;;;1.60;;
54555;SDS011;57291;37.520;15.106;2023-03-14T10:49:56;5.45;;;1.75;;
54555;SDS011;57291;37.520;15.106;2023-03-14T10:52:25;5.40;;;1.77;;
54555;SDS011;57291;37.520;15.106;2023-03-14T10:55:13;5.80;;;1.60;;
54555;SDS011;57291;37.520;15.106;2023-03-14T10:57:41;2.80;;;1.33;;
54555;SDS011;57291;37.520;15.106;2023-03-14T11:00:14;3.70;;;1.40;;
54555;SDS011;57291;37.520;15.106;2023-03-14T11:05:38;4.35;;;1.55;;
54555;SDS011;57291;37.520;15.106;2023-03-14T11:08:27;5.25;;;1.75;;
54555;SDS011;57291;37.520;15.106;2023-03-14T11:11:07;4.63;;;1.42;;
54555;SDS011;57291;37.520;15.106;2023-03-14T11:13:39;6.68;;;2.42;;
54555;SDS011;57291;37.520;15.106;2023-03-14T11:16:26;5.40;;;1.60;;
54555;SDS011;57291;37.520;15.106;2023-03-14T11:33:39;4.97;;;1.58;;
54555;SDS011;57291;37.520;15.106;2023-03-14T11:36:14;7.72;;;2.08;;
54555;SDS011;57291;37.520;15.106;2023-03-14T11:38:55;5.55;;;1.85;;
54555;SDS011;57291;37.520;15.106;2023-03-14T11:41:29;6.47;;;1.85;;
54555;SDS011;57291;37.520;15.106;2023-03-14T11:44:01;4.00;;;1.38;;
54555;SDS011;57291;37.520;15.106;2023-03-14T11:46:41;6.35;;;2.13;;
54555;SDS011;57291;37.520;15.106;2023-03-14T11:51:47;6.18;;;1.40;;
54555;SDS011;57291;37.520;15.106;2023-03-14T11:57:05;6.10;;;1.75;;
54555;SDS011;57291;37.520;15.106;2023-03-14T12:10:48;5.20;;;1.92;;
54555;SDS011;57291;37.520;15.106;2023-03-14T12:13:19;7.25;;;1.65;;
54555;SDS011;57291;37.520;15.106;2023-03-14T12:15:54;6.78;;;1.52;;
54555;SDS011;57291;37.520;15.106;2023-03-14T12:18:30;6.05;;;1.60;;
54555;SDS011;57291;37.520;15.106;2023-03-14T12:21:00;11.70;;;1.80;;
54555;SDS011;57291;37.520;15.106;2023-03-14T12:26:26;6.97;;;1.80;;
54555;SDS011;57291;37.520;15.106;2023-03-14T12:45:14;10.35;;;1.92;;
54555;SDS011;57291;37.520;15.106;2023-03-14T12:50:56;6.53;;;1.80;;
54555;SDS011;57291;37.520;15.106;2023-03-14T13:01:53;9.52;;;2.20;;
54555;SDS011;57291;37.520;15.106;2023-03-14T13:04:35;8.23;;;1.92;;
54555;SDS011;57291;37.520;15.106;2023-03-14T13:07:13;8.18;;;2.00;;
54555;SDS011;57291;37.520;15.106;2023-03-14T13:10:01;7.30;;;2.08;;
54555;SDS011;57291;37.520;15.106;2023-03-14T13:12:32;9.30;;;2.70;;
54555;SDS011;57291;37.520;15.106;2023-03-14T13:15:13;12.43;;;2.58;;
54555;SDS011;57291;37.520;15.106;2023-03-14T13:17:45;6.90;;;2.55;;
54555;SDS011;57291;37.520;15.106;2023-03-14T13:20:36;10.02;;;2.05;;
54555;SDS011;57291;37.520;15.106;2023-03-14T13:23:05;10.68;;;2.80;;
54555;SDS011;57291;37.520;15.106;2023-03-14T13:25:32;9.73;;;2.15;;
54555;SDS011;57291;37.520;15.106;2023-03-14T13:28:01;11.07;;;1.90;;
54555;SDS011;57291;37.520;15.106;2023-03-14T13:30:39;11.52;;;2.40;;
54555;SDS011;57291;37.520;15.106;2023-03-14T13:33:21;10.60;;;2.28;;
54555;SDS011;57291;37.520;15.106;2023-03-14T13:38:33;8.70;;;2.00;;
54555;SDS011;57291;37.520;15.106;2023-03-14T13:41:06;9.07;;;1.90;;
54555;SDS011;57291;37.520;15.106;2023-03-14T13:43:40;6.83;;;1.80;;
54555;SDS011;57291;37.520;15.106;2023-03-14T13:46:13;11.82;;;1.73;;
54555;SDS011;57291;37.520;15.106;2023-03-14T13:48:44;13.55;;;2.25;;
54555;SDS011;57291;37.520;15.106;2023-03-14T13:51:17;9.68;;;1.75;;
54555;SDS011;57291;37.520;15.106;2023-03-14T13:53:48;8.82;;;1.83;;
54555;SDS011;57291;37.520;15.106;2023-03-14T13:56:19;10.07;;;1.58;;
54555;SDS011;57291;37.520;15.106;2023-03-14T13:58:47;6.15;;;1.67;;
54555;SDS011;57291;37.520;15.106;2023-03-14T14:01:20;6.03;;;1.65;;
54555;SDS011;57291;37.520;15.106;2023-03-14T14:03:55;8.18;;;1.67;;
54555;SDS011;57291;37.520;15.106;2023-03-14T14:09:00;8.65;;;1.75;;
54555;SDS011;57291;37.520;15.106;2023-03-14T14:11:45;10.32;;;2.25;;
54555;SDS011;57291;37.520;15.106;2023-03-14T14:14:49;12.23;;;2.03;;
54555;SDS011;57291;37.520;15.106;2023-03-14T14:17:30;13.70;;;1.80;;
54555;SDS011;57291;37.520;15.106;2023-03-14T14:20:04;9.27;;;1.70;;
54555;SDS011;57291;37.520;15.106;2023-03-14T14:22:35;13.00;;;2.60;;
54555;SDS011;57291;37.520;15.106;2023-03-14T14:25:02;9.50;;;1.95;;
54555;SDS011;57291;37.520;15.106;2023-03-14T14:27:36;9.45;;;2.58;;
54555;SDS011;57291;37.520;15.106;2023-03-14T14:32:51;13.88;;;2.50;;
54555;SDS011;57291;37.520;15.106;2023-03-14T14:35:25;9.50;;;2.10;;
54555;SDS011;57291;37.520;15.106;2023-03-14T14:37:57;11.40;;;2.83;;
54555;SDS011;57291;37.520;15.106;2023-03-14T14:40:26;10.40;;;2.25;;
54555;SDS011;57291;37.520;15.106;2023-03-14T14:43:03;11.40;;;2.53;;
54555;SDS011;57291;37.520;15.106;2023-03-14T14:45:33;12.38;;;2.25;;
54555;SDS011;57291;37.520;15.106;2023-03-14T14:50:31;14.90;;;2.70;;
54555;SDS011;57291;37.520;15.106;2023-03-14T14:55:44;14.30;;;2.83;;
54555;SDS011;57291;37.520;15.106;2023-03-14T14:58:16;14.07;;;2.70;;
54555;SDS011;57291;37.520;15.106;2023-03-14T15:01:04;15.60;;;3.08;;
54555;SDS011;57291;37.520;15.106;2023-03-14T15:03:35;12.73;;;2.25;;
54555;SDS011;57291;37.520;15.106;2023-03-14T15:06:03;18.58;;;3.45;;
54555;SDS011;57291;37.520;15.106;2023-03-14T15:08:31;12.52;;;2.80;;
54555;SDS011;57291;37.520;15.106;2023-03-14T15:10:58;16.02;;;3.05;;
54555;SDS011;57291;37.520;15.106;2023-03-14T15:13:26;10.05;;;2.78;;
54555;SDS011;57291;37.520;15.106;2023-03-14T15:15:53;16.55;;;2.95;;
54555;SDS011;57291;37.520;15.106;2023-03-14T15:18:23;20.33;;;3.42;;
54555;SDS011;57291;37.520;15.106;2023-03-14T15:20:54;20.05;;;3.13;;
54555;SDS011;57291;37.520;15.106;2023-03-14T15:23:21;12.77;;;2.88;;
54555;SDS011;57291;37.520;15.106;2023-03-14T15:25:48;13.50;;;2.92;;
54555;SDS011;57291;37.520;15.106;2023-03-14T15:28:26;18.42;;;3.30;;
54555;SDS011;57291;37.520;15.106;2023-03-14T15:30:58;20.25;;;3.33;;
54555;SDS011;57291;37.520;15.106;2023-03-14T15:33:25;13.80;;;2.97;;
54555;SDS011;57291;37.520;15.106;2023-03-14T15:35:53;16.30;;;3.50;;
54555;SDS011;57291;37.520;15.106;2023-03-14T15:38:20;16.15;;;4.05;;
54555;SDS011;57291;37.520;15.106;2023-03-14T15:40:50;13.85;;;4.13;;
54555;SDS011;57291;37.520;15.106;2023-03-14T15:43:18;15.85;;;3.50;;
54555;SDS011;57291;37.520;15.106;2023-03-14T15:45:46;16.45;;;4.13;;
54555;SDS011;57291;37.520;15.106;2023-03-14T15:48:14;16.65;;;4.20;;
54555;SDS011;57291;37.520;15.106;2023-03-14T15:50:46;18.75;;;4.22;;
54555;SDS011;57291;37.520;15.106;2023-03-14T15:53:14;16.23;;;3.97;;
54555;SDS011;57291;37.520;15.106;2023-03-14T15:55:41;19.35;;;4.28;;
54555;SDS011;57291;37.520;15.106;2023-03-14T15:58:10;11.55;;;3.58;;
54555;SDS011;57291;37.520;15.106;2023-03-14T16:00:47;15.98;;;3.50;;
54555;SDS011;57291;37.520;15.106;2023-03-14T16:03:15;19.45;;;3.80;;
54555;SDS011;57291;37.520;15.106;2023-03-14T16:05:42;16.60;;;3.67;;
54555;SDS011;57291;37.520;15.106;2023-03-14T16:08:09;13.52;;;3.35;;
54555;SDS011;57291;37.520;15.106;2023-03-14T16:10:36;19.80;;;3.85;;
54555;SDS011;57291;37.520;15.106;2023-03-14T16:13:05;18.17;;;4.35;;
54555;SDS011;57291;37.520;15.106;2023-03-14T16:15:32;14.48;;;3.17;;
54555;SDS011;57291;37.520;15.106;2023-03-14T16:17:59;13.23;;;3.45;;
54555;SDS011;57291;37.520;15.106;2023-03-14T16:20:40;17.88;;;3.70;;
54555;SDS011;57291;37.520;15.106;2023-03-14T16:23:14;15.88;;;4.07;;